createdAt,value
2022-10-31T00:03:27.920Z,98751.03
2022-10-31T00:08:54.933Z,98753.09
2022-10-31T00:14:25.926Z,98747.84
2022-10-31T00:19:50.945Z,98755.81
2022-10-31T00:25:17.928Z,98763.94
2022-10-31T00:30:42.926Z,98764.94
2022-10-31T00:36:06.915Z,98767.28
2022-10-31T00:41:35.022Z,98773.41
2022-10-31T00:47:03.508Z,98784.22
2022-10-31T00:52:27.952Z,98782.88
2022-10-31T00:57:55.009Z,98788.25
2022-10-31T01:03:19.953Z,98791.47
2022-10-31T01:08:44.969Z,98787.56
2022-10-31T01:14:12.973Z,98787.25
2022-10-31T01:19:36.968Z,98790.94
2022-10-31T01:25:01.982Z,98790.41
2022-10-31T01:30:28.963Z,98783.13
2022-10-31T01:35:54.001Z,98781.78
2022-10-31T01:41:17.985Z,98780.22
2022-10-31T01:46:48.987Z,98770.09
2022-10-31T01:52:17.077Z,98776.31
2022-10-31T01:57:44.226Z,98785.44
2022-10-31T02:03:11.988Z,98777.00
2022-10-31T02:08:38.993Z,98779.72
2022-10-31T02:14:11.007Z,98783.09
2022-10-31T02:19:46.016Z,98790.84
2022-10-31T02:25:18.984Z,98788.00
2022-10-31T02:30:55.995Z,98799.31
2022-10-31T02:36:30.997Z,98805.06
2022-10-31T02:42:01.011Z,98808.25
2022-10-31T02:47:29.016Z,98808.38
2022-10-31T02:53:01.015Z,98811.72
2022-10-31T02:58:29.997Z,98804.22
2022-10-31T03:04:08.257Z,98809.16
2022-10-31T03:09:42.014Z,98816.53
2022-10-31T03:15:28.042Z,98821.19
2022-10-31T03:20:56.104Z,98828.56
2022-10-31T03:26:26.191Z,98828.16
2022-10-31T03:32:00.057Z,98825.41
2022-10-31T03:37:28.101Z,98834.13
2022-10-31T03:43:05.033Z,98835.28
2022-10-31T03:48:31.071Z,98841.16
2022-10-31T03:54:01.073Z,98837.91
2022-10-31T03:59:33.028Z,98848.53
2022-10-31T04:05:06.058Z,98847.53
2022-10-31T04:10:34.104Z,98845.25
2022-10-31T04:16:14.259Z,98855.00
2022-10-31T04:21:42.090Z,98850.41
2022-10-31T04:27:06.072Z,98852.19
2022-10-31T04:32:34.272Z,98858.63
2022-10-31T04:37:59.183Z,98851.47
2022-10-31T04:43:24.080Z,98858.94
2022-10-31T04:49:01.077Z,98865.84
2022-10-31T04:54:27.076Z,98862.97
2022-10-31T05:00:10.336Z,98864.03
2022-10-31T05:05:40.121Z,98864.94
2022-10-31T05:11:04.734Z,98869.38
2022-10-31T05:16:30.332Z,98862.19
2022-10-31T05:22:16.096Z,98866.75
2022-10-31T05:27:41.111Z,98860.38
2022-10-31T05:33:07.085Z,98862.25
2022-10-31T05:38:53.096Z,98867.38
2022-10-31T05:44:26.105Z,98878.16
2022-10-31T05:49:57.102Z,98879.28
2022-10-31T05:55:31.262Z,98880.97
2022-10-31T06:01:16.155Z,98873.88
2022-10-31T06:06:41.111Z,98867.69
2022-10-31T06:12:08.113Z,98896.00
2022-10-31T06:17:52.149Z,98894.00
2022-10-31T06:23:18.130Z,98900.94
2022-10-31T06:28:54.171Z,98905.63
2022-10-31T06:34:38.139Z,98901.94
2022-10-31T06:40:02.144Z,98905.34
2022-10-31T06:45:48.160Z,98913.97
2022-10-31T06:51:16.141Z,98911.84
2022-10-31T06:56:42.187Z,98921.16
2022-10-31T07:02:10.306Z,98928.09
2022-10-31T07:07:35.156Z,98930.22
2022-10-31T07:12:59.456Z,98931.50
2022-10-31T07:18:29.139Z,98936.84
2022-10-31T07:23:54.185Z,98927.22
2022-10-31T07:29:34.174Z,98938.09
2022-10-31T07:35:02.165Z,98940.22
2022-10-31T07:40:37.159Z,98937.47
2022-10-31T07:46:06.217Z,98936.59
2022-10-31T07:51:52.179Z,98934.91
2022-10-31T07:57:39.168Z,98932.28
2022-10-31T08:03:08.201Z,98934.84
2022-10-31T08:08:47.186Z,98937.31
2022-10-31T08:14:12.205Z,98943.19
2022-10-31T08:19:37.186Z,98940.28
2022-10-31T08:25:08.337Z,98942.47
2022-10-31T08:30:33.205Z,98935.25
2022-10-31T08:36:16.224Z,98937.41
2022-10-31T08:41:48.218Z,98937.56
2022-10-31T08:47:06.377Z,98928.91
2022-10-31T08:53:03.113Z,98929.00
2022-10-31T08:58:23.190Z,98917.06
2022-10-31T09:03:52.233Z,98921.84
2022-10-31T09:09:17.436Z,98913.66
2022-10-31T09:14:44.235Z,98908.84
2022-10-31T09:20:14.220Z,98903.16
2022-10-31T09:25:39.236Z,98906.94
2022-10-31T09:31:28.199Z,98898.88
2022-10-31T09:36:57.235Z,98898.25
2022-10-31T09:42:54.208Z,98897.91
2022-10-31T09:48:32.226Z,98895.16
2022-10-31T09:54:14.303Z,98895.47
2022-10-31T09:59:44.227Z,98888.66
2022-10-31T10:05:15.285Z,98890.41
2022-10-31T10:10:55.226Z,98888.50
2022-10-31T10:16:53.227Z,98876.03
2022-10-31T10:22:29.370Z,98870.59
2022-10-31T10:28:06.250Z,98865.84
2022-10-31T10:33:35.284Z,98865.31
2022-10-31T10:39:08.256Z,98856.88
2022-10-31T10:44:46.261Z,98853.59
2022-10-31T10:50:10.266Z,98841.53
2022-10-31T10:55:46.270Z,98835.88
2022-10-31T11:01:11.419Z,98831.94
2022-10-31T11:06:36.284Z,98834.03
2022-10-31T11:12:03.330Z,98822.47
2022-10-31T11:17:35.309Z,98811.19
2022-10-31T11:23:01.289Z,98789.13
2022-10-31T11:28:29.381Z,98785.22
2022-10-31T11:33:56.289Z,98778.00
2022-10-31T11:39:29.289Z,98780.00
2022-10-31T11:45:00.295Z,98776.31
2022-10-31T11:50:32.340Z,98768.25
2022-10-31T11:55:56.314Z,98771.69
2022-10-31T12:01:38.696Z,98765.69
2022-10-31T12:07:05.335Z,98754.66
2022-10-31T12:12:46.507Z,98753.22
2022-10-31T12:18:26.321Z,98742.13
2022-10-31T12:24:04.330Z,98732.09
2022-10-31T12:29:44.370Z,98722.88
2022-10-31T12:35:47.327Z,98723.34
2022-10-31T12:41:38.366Z,98715.34
2022-10-31T12:47:16.327Z,98702.97
2022-10-31T12:53:05.492Z,98703.59
2022-10-31T12:58:34.363Z,98701.47
2022-10-31T13:04:07.342Z,98698.97
2022-10-31T13:09:41.625Z,98696.00
2022-10-31T13:15:16.554Z,98684.28
2022-10-31T13:20:45.514Z,98681.53
2022-10-31T13:26:15.372Z,98670.19
2022-10-31T13:31:40.466Z,98665.16
2022-10-31T13:37:12.399Z,98661.75
2022-10-31T13:42:52.370Z,98656.91
2022-10-31T13:48:18.400Z,98648.53
2022-10-31T13:54:07.404Z,98644.09
2022-10-31T13:59:38.397Z,98637.97
2022-10-31T14:05:11.165Z,98632.53
2022-10-31T14:10:43.442Z,98632.03
2022-10-31T14:16:19.390Z,98626.16
2022-10-31T14:21:49.387Z,98625.50
2022-10-31T14:27:16.410Z,98624.19
2022-10-31T14:32:45.416Z,98613.06
2022-10-31T14:38:39.460Z,98620.16
2022-10-31T14:44:26.561Z,98616.34
2022-10-31T14:50:32.433Z,98609.59
2022-10-31T14:56:05.750Z,98604.03
2022-10-31T15:01:40.536Z,98599.38
2022-10-31T15:07:12.463Z,98594.44
2022-10-31T15:12:45.442Z,98591.63
2022-10-31T15:18:13.459Z,98584.75
2022-10-31T15:23:43.463Z,98580.66
2022-10-31T15:29:10.474Z,98576.50
2022-10-31T15:34:39.544Z,98566.75
2022-10-31T15:40:17.507Z,98569.75
2022-10-31T15:45:43.481Z,98564.75
2022-10-31T15:51:09.449Z,98563.91
2022-10-31T15:56:40.505Z,98557.66
2022-10-31T16:02:10.564Z,98559.59
2022-10-31T16:07:36.481Z,98569.59
2022-10-31T16:13:04.576Z,98568.19
2022-10-31T16:18:28.488Z,98562.78
2022-10-31T16:23:58.471Z,98559.31
2022-10-31T16:29:52.523Z,98561.44
2022-10-31T16:35:35.517Z,98560.50
2022-10-31T16:41:00.501Z,98565.16
2022-10-31T16:46:32.586Z,98556.38
2022-10-31T16:51:56.489Z,98561.66
2022-10-31T16:57:25.519Z,98560.53
2022-10-31T17:02:52.520Z,98565.66
2022-10-31T17:08:17.523Z,98562.66
2022-10-31T17:13:45.494Z,98560.28
2022-10-31T17:19:13.525Z,98563.75
2022-10-31T17:24:37.550Z,98559.44
2022-10-31T17:30:02.512Z,98555.09
2022-10-31T17:35:30.518Z,98552.81
2022-10-31T17:40:55.536Z,98546.41
2022-10-31T17:46:21.510Z,98544.25
2022-10-31T17:51:49.531Z,98542.56
2022-10-31T17:57:13.543Z,98548.53
2022-10-31T18:02:39.530Z,98545.16
2022-10-31T18:08:31.553Z,98535.81
2022-10-31T18:13:56.568Z,98547.03
2022-10-31T18:19:22.543Z,98545.03
2022-10-31T18:24:50.533Z,98541.84
2022-10-31T18:30:17.257Z,98543.03
2022-10-31T18:35:45.566Z,98535.06
2022-10-31T18:41:12.584Z,98511.63
2022-10-31T18:46:37.593Z,98502.84
2022-10-31T18:52:01.545Z,98516.06
2022-10-31T18:57:29.564Z,98523.03
2022-10-31T19:02:56.601Z,98512.53
2022-10-31T19:08:21.607Z,98501.25
2022-10-31T19:13:48.572Z,98493.16
2022-10-31T19:19:13.616Z,98496.72
2022-10-31T19:24:37.618Z,98486.25
2022-10-31T19:30:04.608Z,98482.22
2022-10-31T19:35:28.629Z,98474.81
2022-10-31T19:40:54.607Z,98477.22
2022-10-31T19:46:40.424Z,98489.06
2022-10-31T19:52:08.593Z,98472.22
2022-10-31T19:57:56.242Z,98467.50
2022-10-31T20:03:22.572Z,98470.41
2022-10-31T20:08:46.611Z,98465.50
2022-10-31T20:14:11.624Z,98462.78
2022-10-31T20:19:38.638Z,98455.06
2022-10-31T20:25:03.619Z,98449.13
2022-10-31T20:30:28.618Z,98457.41
2022-10-31T20:35:56.652Z,98460.13
2022-10-31T20:41:24.627Z,98465.53
2022-10-31T20:46:49.697Z,98464.56
2022-10-31T20:52:16.621Z,98450.69
2022-10-31T20:57:41.644Z,98440.59
2022-10-31T21:03:05.656Z,98436.09
2022-10-31T21:08:33.644Z,98441.50
2022-10-31T21:13:59.652Z,98436.25
2022-10-31T21:19:24.654Z,98424.75
2022-10-31T21:24:51.642Z,98418.34
2022-10-31T21:30:17.654Z,98412.94
2022-10-31T21:35:41.709Z,98414.31
2022-10-31T21:41:14.648Z,98394.88
2022-10-31T21:46:41.666Z,98399.13
2022-10-31T21:52:06.685Z,98412.25
2022-10-31T21:57:33.709Z,98411.03
2022-10-31T22:02:59.693Z,98398.00
2022-10-31T22:08:23.682Z,98378.34
2022-10-31T22:13:52.697Z,98363.03
2022-10-31T22:19:17.668Z,98347.63
2022-10-31T22:24:42.832Z,98327.13
2022-10-31T22:30:09.685Z,98306.81
2022-10-31T22:35:35.708Z,98294.59
2022-10-31T22:41:01.696Z,98277.81
2022-10-31T22:46:31.691Z,98266.66
2022-10-31T22:51:56.698Z,98269.19
2022-10-31T22:57:21.690Z,98259.19
2022-10-31T23:02:50.712Z,98250.06
2022-10-31T23:08:15.739Z,98235.31
2022-10-31T23:14:01.731Z,98241.59
2022-10-31T23:19:31.830Z,98249.03
2022-10-31T23:24:59.124Z,98239.03
2022-10-31T23:30:24.586Z,98232.03
2022-10-31T23:35:51.713Z,98228.44
2022-10-31T23:41:16.716Z,98220.34
2022-10-31T23:46:40.719Z,98225.31
2022-10-31T23:52:08.750Z,98222.69
2022-10-31T23:57:33.055Z,98218.72
